Terminal Aerodrome Forecast
Issued by NWS

Home | Current Version | Previous Version | Text Only | Print | Product List | Glossary On
Versions: 1 2 3 4 5 6 7 8 9 10 11 12 13 14 15 16 17 18 19 20 21 22 23 24 25 26 27 28 29 30 31 32 33
000
FTUS45 KREV 171700
TAFCXP
TAF
KCXP 171720Z 1718/1818 VRB03KT P6SM FEW070 SCT100
     FM172000 23006KT P6SM VCSH SCT035 BKN070
     FM180200 VRB04KT P6SM SCT040 BKN120=

USA.gov is the U.S. government's official web portal to all federal, state and local government web resources and services.